05:01
Airports
History
Links
Donate
Help keep this website running!
PayPal
Bitcoin
This page is community maintained. The information is intended for PC simulator navigation or reference.
Always use approved charts for navigation.
6V9
Cass Field
Cass Field (6V9)
Briggsdale, Colorado, United States (80611)
4
Lat/Lng:40° 37' 19.94" N / 104° 20' 39.83" W
40.622205 / -104.344396
Elevation:4830'ft / 1472mMSL
ID / ICAO:6V9
Runways:1
Longest:16-34
Grass 1,191m / 3,907ft
Nearby Weather03:56 GMT 2018-01-21
Nearby weather at KGXY, Greeley-weld County located 19.8 nautical miles from 6V9
Altimeter: 29.83
Visibility: 10.0 statute miles
Wind: 10 knots (from 050°)
Temp: -1°c / 30°f
Humidity: 92.9%

METAR: KGXY 210356Z AUTO 05010KT 10SM BKN009 OVC019 M01/M02 A2983 RMK AO2 SLP137 T10061022 FZRANO

(Powered by phpweather)
Nearby VORs <50NM
Nearby NDBs
Runway 16 / 34
Dimensions:1190.9 x 6.1m 3907' x 20'ft
Surface:Grass
Runway 16 [A]Runway 34 [B]
Heading:171°TH 351°TH
Lat:
Lng:
40° 37' 38.96"N
104° 20' 43.79"W
40° 37' 0.92"N
104° 20' 35.86"W
User Notes and Comments
40° 37' 19.94" N / 104° 20' 39.83" W
Distance To
Airport ID:
Nearby Airports
(R) William Leon Schawo 7.9 NM
8CO2 ENE 64°
(R) Crop Air Inc 17.8 NM
CO48 WSW 244°
4 Uhrich 19.4 NM
CO70 SW 234°
(U) Greeley-weld County 19.8 NM
KGXY ( WX ) SW 229°
(R) Williams Ranch 21.3 NM
7CO4 E 93°
4 Yocam Ranch 23.1 NM
7CO5 SSE 164°
(R) Bellmore Farms 24.4 NM
1CO3 WNW 283°
VFR Chart
Flight Planning at SkyVector.com